Terminal Aerodrome Forecast
Issued by NWS Duluth, MN

Home | Current Version | Previous Version | Text Only | Print | Product List | Glossary On
Versions: 1 2 3 4 5 6 7 8 9 10 11 12 13 14 15 16 17 18 19 20
000
FTUS43 KDLH 231921 AAA
TAFINL
TAF AMD
KINL 231921Z 2319/2418 30013G20KT P6SM VCSH SCT035 BKN060
      TEMPO 2320/2323 6SM SHRA BKN030
     FM240000 30010KT P6SM VCSH BKN030
     FM240400 30007KT P6SM BKN015
     FM241600 29008KT P6SM VCSH BKN025=

USA.gov is the U.S. government's official web portal to all federal, state and local government web resources and services.